OIMC  Sarakhs Airport

Add Bookmark

Sarakhs, Iran

Status IATA
Operational CKT
Latitude Longitude
36° 30' 4" N 61° 3' 53" E
36.501202 61.064899
Local (DST + 5) UTC (GMT + 4)
Oct 25, 2014 12:56 Oct 25, 2014 09:26
Sunrise-Sunset Local UTC
Begin Civil Twilight 05:14 01:44
Sunrise 05:41 02:11
Sunset 04:38 13:08
End Civil Twilight 05:04 13:34

Current Weather

METAR Observed VFR
OIMC 250800Z 27010KT CAVOK 26/08 Q1016 Sat, Oct 25, 2014 @ 08:00 UTC
(1 Hour, 26 Minutes ago)
Visual Flight Rules
Wind Visibility Clouds Conditions
270° at 10 knots (19 kph) 10 km or more
  • Clear skies
  • No significant weather
Temperatures Readings Precipitation
Current Temp 26°C (79°F)
Dewpoint 8°C (46°F)
Humidity 32%
Altimeter 30"Hg
Sea Level Pressure 1016mb
Field Elevation 944.88'
None Recorded

Additional weather within a 185.2km radius of OIMC

Map ICAO Location
OIMM 130.8km W (257°)
UTAM 144.5km N (030°)

24 Hour Weather History

Loading
-

24 Hour Weather Graphs

Loading
-

CheckWX.com is intended as a tool to help pilots better visualize weather data. It is not intended as a substitute for an official weather briefing obtained from a Flight Service Station. CheckWX.com does not meet the FAA requirements for an official pre-flight weather briefing. Therefore, it's important that pilots still call and obtain an official FSS pre-flight weather briefing.